createdAt,value
2023-01-26T00:02:19.400Z,16.40
2023-01-26T00:04:46.231Z,15.53
2023-01-26T00:07:13.369Z,14.70
2023-01-26T00:09:40.131Z,15.87
2023-01-26T00:12:07.205Z,14.83
2023-01-26T00:14:50.111Z,15.13
2023-01-26T00:17:26.548Z,15.57
2023-01-26T00:19:55.406Z,15.10
2023-01-26T00:22:22.416Z,14.53
2023-01-26T00:24:49.244Z,15.83
2023-01-26T00:27:16.107Z,15.27
2023-01-26T00:29:42.943Z,15.83
2023-01-26T00:32:09.740Z,15.00
2023-01-26T00:34:36.625Z,15.13
2023-01-26T00:37:03.445Z,14.60
2023-01-26T00:39:30.202Z,15.30
2023-01-26T00:42:14.029Z,17.10
2023-01-26T00:44:42.449Z,15.23
2023-01-26T00:47:10.446Z,15.27
2023-01-26T00:49:37.394Z,15.53
2023-01-26T00:52:04.641Z,14.87
2023-01-26T00:54:31.557Z,15.97
2023-01-26T00:56:58.402Z,13.87
2023-01-26T00:59:25.953Z,14.17
2023-01-26T01:01:53.252Z,14.53
2023-01-26T01:04:20.384Z,15.13
2023-01-26T01:06:47.124Z,14.77
2023-01-26T01:09:13.935Z,14.00
2023-01-26T01:11:40.802Z,15.73
2023-01-26T01:14:07.742Z,15.37
2023-01-26T01:16:34.626Z,15.93
2023-01-26T01:19:01.827Z,14.97
2023-01-26T01:21:28.675Z,15.80
2023-01-26T01:23:55.622Z,14.30
2023-01-26T01:26:22.501Z,14.23
2023-01-26T01:28:49.869Z,14.63
2023-01-26T01:31:17.305Z,15.27
2023-01-26T01:33:44.562Z,14.57
2023-01-26T01:36:12.783Z,14.13
2023-01-26T01:38:39.936Z,13.93
2023-01-26T01:41:06.921Z,15.03
2023-01-26T01:43:34.086Z,14.03
2023-01-26T01:46:01.763Z,14.63
2023-01-26T01:48:31.301Z,14.53
2023-01-26T01:51:00.243Z,15.17
2023-01-26T01:53:47.281Z,14.67
2023-01-26T01:56:21.737Z,14.10
2023-01-26T01:58:49.906Z,12.73
2023-01-26T02:01:16.782Z,13.80
2023-01-26T02:03:44.905Z,15.00
2023-01-26T02:06:14.207Z,13.63
2023-01-26T02:08:43.961Z,13.13
2023-01-26T02:11:20.841Z,13.10
2023-01-26T02:13:49.270Z,12.47
2023-01-26T02:16:16.840Z,13.67
2023-01-26T02:18:44.326Z,13.33
2023-01-26T02:21:22.654Z,13.77
2023-01-26T02:24:22.326Z,15.27
2023-01-26T02:26:49.726Z,13.27
2023-01-26T02:29:17.102Z,14.43
2023-01-26T02:31:44.443Z,14.70
2023-01-26T02:34:11.893Z,14.73
2023-01-26T02:36:38.780Z,14.20
2023-01-26T02:39:24.142Z,14.47
2023-01-26T02:42:10.599Z,14.23
2023-01-26T02:44:39.608Z,13.83
2023-01-26T02:47:13.613Z,14.63
2023-01-26T02:49:53.158Z,15.70
2023-01-26T02:52:27.997Z,13.87
2023-01-26T02:55:18.618Z,14.17
2023-01-26T02:57:45.768Z,15.07
2023-01-26T03:00:15.375Z,13.63
2023-01-26T03:02:42.914Z,15.23
2023-01-26T03:05:10.203Z,14.47
2023-01-26T03:07:37.791Z,14.23
2023-01-26T03:10:05.663Z,14.40
2023-01-26T03:12:33.580Z,15.57
2023-01-26T03:15:19.108Z,15.47
2023-01-26T03:17:45.991Z,15.73
2023-01-26T03:20:31.431Z,15.53
2023-01-26T03:23:17.080Z,15.47
2023-01-26T03:26:02.647Z,15.33
2023-01-26T03:28:32.873Z,15.37
2023-01-26T03:31:00.022Z,15.90
2023-01-26T03:33:28.514Z,15.23
2023-01-26T03:35:55.677Z,15.20
2023-01-26T03:38:23.922Z,15.57
2023-01-26T03:41:16.124Z,13.67
2023-01-26T03:44:02.054Z,15.40
2023-01-26T03:46:48.024Z,14.43
2023-01-26T03:49:35.354Z,14.43
2023-01-26T03:52:21.078Z,15.63
2023-01-26T03:55:07.926Z,15.20
2023-01-26T03:57:35.533Z,14.97
2023-01-26T04:00:02.381Z,15.10
2023-01-26T04:02:57.699Z,16.03
2023-01-26T04:05:43.374Z,14.63
2023-01-26T04:08:23.323Z,15.37
2023-01-26T04:10:56.446Z,14.87
2023-01-26T04:13:43.782Z,16.07
2023-01-26T04:16:37.421Z,16.03
2023-01-26T04:19:22.935Z,16.17
2023-01-26T04:21:50.630Z,16.20
2023-01-26T04:24:22.595Z,16.13
2023-01-26T04:26:54.300Z,17.30
2023-01-26T04:29:25.861Z,16.27
2023-01-26T04:31:52.754Z,17.00
2023-01-26T04:34:22.156Z,18.63
2023-01-26T04:36:49.309Z,19.87
2023-01-26T04:39:16.999Z,18.63
2023-01-26T04:41:48.013Z,17.50
2023-01-26T04:44:17.090Z,27.97
2023-01-26T04:46:44.482Z,19.73
2023-01-26T04:49:13.347Z,29.03
2023-01-26T04:51:40.371Z,21.60
2023-01-26T04:54:07.313Z,24.30
2023-01-26T04:56:38.183Z,18.47
2023-01-26T04:59:06.224Z,16.90
2023-01-26T05:01:34.669Z,16.40
2023-01-26T05:04:05.313Z,21.20
2023-01-26T05:06:33.278Z,18.40
2023-01-26T05:09:00.138Z,18.53
2023-01-26T05:11:27.802Z,55.83
2023-01-26T05:14:13.412Z,39.20
2023-01-26T05:16:55.205Z,22.53
2023-01-26T05:19:28.267Z,17.67
2023-01-26T05:22:12.732Z,18.00
2023-01-26T05:24:46.064Z,17.73
2023-01-26T05:27:27.188Z,17.33
2023-01-26T05:30:00.869Z,16.73
2023-01-26T05:32:30.901Z,17.17
2023-01-26T05:34:57.915Z,15.93
2023-01-26T05:37:28.526Z,15.70
2023-01-26T05:39:56.297Z,16.60
2023-01-26T05:42:23.332Z,16.93
2023-01-26T05:44:52.960Z,17.87
2023-01-26T05:47:22.521Z,19.60
2023-01-26T05:49:50.640Z,19.20
2023-01-26T05:52:30.324Z,18.03
2023-01-26T05:54:57.453Z,17.70
2023-01-26T05:57:25.048Z,18.93
2023-01-26T05:59:59.681Z,19.33
2023-01-26T06:02:27.632Z,17.93
2023-01-26T06:04:55.267Z,15.83
2023-01-26T06:07:22.624Z,16.03
2023-01-26T06:10:27.793Z,22.47
2023-01-26T06:13:04.109Z,23.17
2023-01-26T06:15:39.861Z,22.57
2023-01-26T06:18:07.897Z,24.03
2023-01-26T06:20:35.753Z,26.50
2023-01-26T06:23:05.733Z,26.33
2023-01-26T06:25:34.868Z,29.07
2023-01-26T06:28:02.129Z,45.93
2023-01-26T06:30:29.629Z,39.97
2023-01-26T06:33:01.364Z,27.33
2023-01-26T06:35:29.800Z,24.33
2023-01-26T06:38:00.143Z,26.23
2023-01-26T06:40:27.055Z,18.77
2023-01-26T06:42:54.365Z,69.47
2023-01-26T06:45:21.344Z,92.50
2023-01-26T06:47:50.917Z,28.30
2023-01-26T06:50:22.980Z,29.47
2023-01-26T06:53:10.136Z,35.70
2023-01-26T06:55:53.154Z,33.77
2023-01-26T06:58:47.069Z,29.00
2023-01-26T07:01:27.556Z,17.80
2023-01-26T07:03:55.138Z,17.80
2023-01-26T07:06:22.022Z,19.00
2023-01-26T07:08:48.806Z,19.50
2023-01-26T07:11:17.028Z,19.17
2023-01-26T07:13:43.825Z,19.10
2023-01-26T07:16:12.725Z,18.63
2023-01-26T07:18:39.543Z,18.90
2023-01-26T07:21:07.659Z,24.27
2023-01-26T07:23:35.263Z,24.20
2023-01-26T07:26:02.428Z,23.77
2023-01-26T07:28:30.779Z,19.77
2023-01-26T07:30:58.333Z,69.57
2023-01-26T07:33:25.222Z,22.20
2023-01-26T07:35:55.192Z,24.50
2023-01-26T07:38:22.307Z,34.80
2023-01-26T07:40:49.108Z,31.27
2023-01-26T07:43:16.653Z,30.70
2023-01-26T07:45:52.966Z,26.60
2023-01-26T07:48:20.639Z,25.10
2023-01-26T07:50:50.303Z,21.27
2023-01-26T07:53:21.435Z,20.73
2023-01-26T07:55:48.426Z,17.37
2023-01-26T07:58:15.810Z,19.57
2023-01-26T08:00:42.686Z,19.73
2023-01-26T08:03:09.636Z,19.37
2023-01-26T08:05:38.679Z,20.43
2023-01-26T08:08:06.032Z,16.43
2023-01-26T08:10:32.976Z,16.07
2023-01-26T08:13:00.918Z,15.30
2023-01-26T08:15:28.456Z,16.97
2023-01-26T08:17:55.400Z,16.60
2023-01-26T08:20:22.609Z,17.13
2023-01-26T08:22:49.436Z,17.80
2023-01-26T08:25:16.289Z,18.00
2023-01-26T08:27:43.116Z,17.83
2023-01-26T08:30:10.600Z,19.47
2023-01-26T08:32:38.039Z,18.37
2023-01-26T08:35:05.286Z,18.97
2023-01-26T08:37:32.233Z,17.77
2023-01-26T08:39:58.992Z,18.87
2023-01-26T08:42:25.827Z,18.70
2023-01-26T08:44:52.788Z,18.17
2023-01-26T08:47:19.684Z,17.57
2023-01-26T08:49:46.587Z,17.63
2023-01-26T08:52:13.446Z,17.77
2023-01-26T08:54:40.307Z,19.50
2023-01-26T08:57:07.097Z,19.17
2023-01-26T08:59:33.933Z,16.10
2023-01-26T09:02:00.845Z,16.80
2023-01-26T09:04:27.806Z,15.90
2023-01-26T09:06:54.702Z,16.87
2023-01-26T09:09:21.588Z,16.00
2023-01-26T09:11:48.551Z,16.90
2023-01-26T09:14:15.455Z,15.53
2023-01-26T09:16:42.270Z,16.73
2023-01-26T09:19:09.048Z,15.93
2023-01-26T09:21:35.917Z,15.80
2023-01-26T09:24:02.888Z,15.93
2023-01-26T09:26:30.766Z,15.27
2023-01-26T09:28:57.566Z,16.60
2023-01-26T09:31:24.530Z,14.07
2023-01-26T09:33:51.616Z,13.87
2023-01-26T09:36:18.893Z,15.03
2023-01-26T09:38:45.877Z,15.97
2023-01-26T09:41:35.128Z,14.80
2023-01-26T09:44:05.809Z,15.93
2023-01-26T09:46:52.918Z,14.27
2023-01-26T09:49:23.176Z,14.73
2023-01-26T09:52:03.751Z,14.50
2023-01-26T09:55:03.021Z,15.40
2023-01-26T09:57:29.794Z,14.67
2023-01-26T09:59:56.587Z,14.83
2023-01-26T10:02:29.500Z,15.07
2023-01-26T10:04:58.738Z,14.53
2023-01-26T10:07:25.519Z,15.00
2023-01-26T10:09:53.054Z,14.00
2023-01-26T10:12:23.678Z,16.10
2023-01-26T10:15:11.038Z,15.13
2023-01-26T10:17:39.686Z,16.57
2023-01-26T10:20:09.560Z,15.33
2023-01-26T10:22:40.642Z,15.20
2023-01-26T10:25:13.675Z,17.43
2023-01-26T10:27:40.581Z,18.23
2023-01-26T10:30:12.602Z,17.53
2023-01-26T10:32:40.912Z,18.37
2023-01-26T10:35:15.176Z,18.03
2023-01-26T10:37:41.970Z,25.13
2023-01-26T10:40:09.791Z,52.43
2023-01-26T10:42:36.994Z,23.43
2023-01-26T10:45:23.339Z,18.73
2023-01-26T10:48:03.247Z,17.20
2023-01-26T10:50:32.088Z,17.70
2023-01-26T10:53:00.106Z,16.50
2023-01-26T10:55:28.767Z,16.37
2023-01-26T10:57:55.597Z,14.87
2023-01-26T11:00:22.453Z,15.67
2023-01-26T11:02:53.552Z,13.73
2023-01-26T11:05:24.498Z,14.30
2023-01-26T11:07:55.428Z,14.27
2023-01-26T11:10:22.610Z,15.03
2023-01-26T11:12:50.152Z,15.13
2023-01-26T11:15:18.655Z,14.43
2023-01-26T11:17:56.653Z,16.63
2023-01-26T11:20:42.128Z,16.93
2023-01-26T11:23:12.021Z,18.30
2023-01-26T11:25:48.232Z,17.87
2023-01-26T11:28:23.389Z,17.40
2023-01-26T11:30:56.467Z,18.37
2023-01-26T11:33:23.318Z,21.63
2023-01-26T11:35:56.032Z,20.87
2023-01-26T11:38:31.129Z,21.83
2023-01-26T11:41:00.913Z,22.03
2023-01-26T11:43:46.437Z,22.77
2023-01-26T11:46:21.271Z,20.20
2023-01-26T11:49:00.219Z,19.53
2023-01-26T11:51:46.027Z,18.77
2023-01-26T11:54:19.747Z,21.80
2023-01-26T11:57:12.926Z,20.70
2023-01-26T11:59:55.134Z,22.57
2023-01-26T12:02:22.029Z,20.37
2023-01-26T12:04:49.186Z,21.13
2023-01-26T12:07:51.484Z,20.67
2023-01-26T12:10:20.415Z,19.50
2023-01-26T12:12:50.846Z,21.03
2023-01-26T12:15:27.803Z,21.23
2023-01-26T12:18:10.245Z,18.03
2023-01-26T12:20:42.385Z,19.57
2023-01-26T12:23:09.167Z,17.87
2023-01-26T12:25:37.919Z,19.87
2023-01-26T12:28:11.048Z,18.10
2023-01-26T12:30:53.157Z,20.33
2023-01-26T12:33:20.163Z,27.20
2023-01-26T12:35:46.976Z,15.63
2023-01-26T12:38:18.456Z,18.40
2023-01-26T12:41:04.269Z,25.47
2023-01-26T12:43:31.105Z,25.23
2023-01-26T12:46:00.478Z,20.90
2023-01-26T12:48:34.678Z,16.83
2023-01-26T12:51:03.351Z,18.10
2023-01-26T12:53:33.896Z,17.10
2023-01-26T12:56:01.330Z,17.03
2023-01-26T12:58:31.624Z,17.10
2023-01-26T13:01:01.723Z,16.17
2023-01-26T13:03:30.395Z,16.47
2023-01-26T13:05:57.213Z,24.43
2023-01-26T13:08:33.254Z,17.67
2023-01-26T13:11:01.008Z,16.03
2023-01-26T13:13:34.029Z,16.53
2023-01-26T13:16:16.008Z,16.70
2023-01-26T13:18:50.421Z,17.77
2023-01-26T13:21:35.737Z,17.63
2023-01-26T13:24:02.786Z,17.80
2023-01-26T13:26:32.389Z,15.90
2023-01-26T13:29:17.775Z,15.73
2023-01-26T13:31:44.679Z,15.43
2023-01-26T13:34:14.095Z,15.97
2023-01-26T13:36:42.534Z,14.40
2023-01-26T13:39:14.601Z,13.70
2023-01-26T13:41:46.196Z,14.27
2023-01-26T13:44:21.890Z,14.97
2023-01-26T13:46:52.014Z,14.87
2023-01-26T13:49:26.292Z,14.33
2023-01-26T13:51:53.812Z,13.60
2023-01-26T13:54:21.456Z,13.63
2023-01-26T13:57:02.336Z,14.83
2023-01-26T13:59:29.773Z,14.83
2023-01-26T14:01:57.419Z,14.27
2023-01-26T14:04:25.338Z,13.67
2023-01-26T14:06:58.377Z,15.60
2023-01-26T14:09:28.858Z,15.07
2023-01-26T14:11:59.954Z,17.63
2023-01-26T14:14:28.535Z,15.37
2023-01-26T14:16:57.714Z,13.20
2023-01-26T14:19:25.088Z,12.23
2023-01-26T14:22:01.135Z,12.60
2023-01-26T14:24:35.812Z,12.53
2023-01-26T14:27:03.909Z,9.90
2023-01-26T14:29:31.930Z,10.57
2023-01-26T14:31:59.574Z,10.87
2023-01-26T14:34:30.348Z,10.40
2023-01-26T14:37:16.949Z,11.50
2023-01-26T14:39:45.970Z,8.47
2023-01-26T14:42:14.687Z,7.63
2023-01-26T14:44:41.814Z,8.90
2023-01-26T14:47:20.907Z,11.07
2023-01-26T14:49:52.628Z,10.30
2023-01-26T14:52:27.350Z,7.83
2023-01-26T14:54:55.600Z,7.83
2023-01-26T14:57:23.748Z,8.67
2023-01-26T14:59:52.542Z,7.47
2023-01-26T15:02:21.022Z,8.83
2023-01-26T15:04:55.124Z,8.43
2023-01-26T15:07:39.110Z,8.80
2023-01-26T15:10:24.790Z,10.77
2023-01-26T15:12:58.624Z,8.57
2023-01-26T15:15:29.676Z,9.00
2023-01-26T15:18:14.947Z,10.53
2023-01-26T15:20:41.820Z,8.80
2023-01-26T15:23:35.151Z,9.20
2023-01-26T15:26:09.493Z,9.20
2023-01-26T15:28:37.245Z,9.50
2023-01-26T15:31:04.588Z,8.97
2023-01-26T15:33:46.697Z,8.27
2023-01-26T15:36:24.644Z,8.33
2023-01-26T15:38:56.256Z,12.80
2023-01-26T15:41:23.187Z,13.77
2023-01-26T15:43:49.940Z,13.63
2023-01-26T15:46:16.868Z,11.50
2023-01-26T15:48:43.759Z,11.03
2023-01-26T15:51:12.558Z,11.17
2023-01-26T15:53:39.455Z,12.20
2023-01-26T15:56:06.859Z,12.67
2023-01-26T15:58:35.873Z,11.53
2023-01-26T16:01:03.483Z,12.50
2023-01-26T16:03:30.276Z,13.83
2023-01-26T16:05:57.106Z,17.30
2023-01-26T16:08:23.937Z,21.60
2023-01-26T16:10:50.998Z,17.07
2023-01-26T16:13:19.387Z,14.70
2023-01-26T16:15:53.410Z,11.47
2023-01-26T16:18:20.885Z,8.87
2023-01-26T16:20:48.986Z,8.60
2023-01-26T16:23:17.872Z,8.30
2023-01-26T16:25:45.162Z,7.80
2023-01-26T16:28:11.995Z,7.27
2023-01-26T16:30:38.855Z,8.03
2023-01-26T16:33:05.826Z,8.07
2023-01-26T16:35:32.656Z,8.00
2023-01-26T16:37:59.468Z,7.30
2023-01-26T16:40:26.421Z,7.57
2023-01-26T16:42:54.015Z,7.70
2023-01-26T16:45:26.799Z,7.23
2023-01-26T16:47:55.858Z,8.30
2023-01-26T16:50:23.417Z,7.97
2023-01-26T16:52:50.246Z,8.37
2023-01-26T16:55:17.655Z,9.07
2023-01-26T16:57:45.038Z,8.23
2023-01-26T17:00:16.909Z,10.10
2023-01-26T17:02:44.930Z,9.80
2023-01-26T17:05:19.110Z,9.20
2023-01-26T17:07:45.986Z,11.20
2023-01-26T17:10:13.893Z,33.60
2023-01-26T17:12:40.826Z,23.83
2023-01-26T17:15:08.671Z,22.70
2023-01-26T17:17:35.478Z,14.17
2023-01-26T17:20:17.699Z,14.70
2023-01-26T17:22:45.206Z,14.23
2023-01-26T17:25:13.895Z,14.97
2023-01-26T17:27:43.580Z,14.00
2023-01-26T17:30:11.004Z,14.73
2023-01-26T17:32:37.997Z,16.37
2023-01-26T17:35:04.904Z,14.70
2023-01-26T17:37:31.771Z,17.57
2023-01-26T17:39:58.939Z,18.13
2023-01-26T17:42:25.928Z,19.03
2023-01-26T17:44:52.852Z,17.17
2023-01-26T17:47:19.770Z,16.60
2023-01-26T17:49:46.552Z,19.07
2023-01-26T17:52:14.696Z,19.37
2023-01-26T17:54:41.572Z,16.63
2023-01-26T17:57:08.535Z,16.83
2023-01-26T17:59:35.625Z,15.33
2023-01-26T18:02:02.733Z,19.00
2023-01-26T18:04:31.405Z,18.17
2023-01-26T18:06:58.604Z,18.00
2023-01-26T18:09:25.492Z,12.77
2023-01-26T18:11:52.403Z,14.67
2023-01-26T18:14:19.357Z,15.03
2023-01-26T18:16:46.240Z,16.97
2023-01-26T18:19:13.345Z,18.73
2023-01-26T18:21:40.294Z,20.93
2023-01-26T18:24:07.461Z,20.13
2023-01-26T18:26:38.190Z,20.07
2023-01-26T18:29:06.005Z,21.27
2023-01-26T18:31:34.522Z,20.83
2023-01-26T18:34:02.192Z,22.83
2023-01-26T18:36:29.060Z,22.33
2023-01-26T18:38:58.221Z,24.10
2023-01-26T18:41:26.173Z,24.53
2023-01-26T18:43:54.320Z,22.77
2023-01-26T18:46:24.782Z,20.27
2023-01-26T18:48:55.414Z,21.20
2023-01-26T18:51:22.815Z,20.57
2023-01-26T18:53:49.824Z,22.93
2023-01-26T18:56:16.966Z,20.70
2023-01-26T18:58:43.853Z,24.73
2023-01-26T19:01:11.809Z,28.20
2023-01-26T19:03:41.786Z,22.00
2023-01-26T19:06:09.271Z,21.70
2023-01-26T19:08:36.032Z,21.60
2023-01-26T19:11:09.326Z,24.63
2023-01-26T19:13:36.328Z,28.07
2023-01-26T19:16:03.431Z,23.10
2023-01-26T19:18:30.404Z,19.07
2023-01-26T19:20:58.054Z,16.13
2023-01-26T19:23:25.137Z,18.50
2023-01-26T19:25:52.265Z,19.03
2023-01-26T19:28:19.182Z,17.67
2023-01-26T19:30:46.173Z,18.40
2023-01-26T19:33:25.093Z,19.20
2023-01-26T19:35:52.309Z,17.53
2023-01-26T19:38:19.220Z,18.57
2023-01-26T19:40:47.185Z,17.27
2023-01-26T19:43:15.115Z,15.17
2023-01-26T19:45:42.275Z,16.50
2023-01-26T19:48:09.105Z,17.43
2023-01-26T19:50:36.031Z,17.10
2023-01-26T19:53:02.836Z,18.23
2023-01-26T19:55:30.398Z,18.67
2023-01-26T19:57:57.362Z,18.40
2023-01-26T20:00:24.216Z,20.60
2023-01-26T20:02:51.126Z,18.93
2023-01-26T20:05:18.791Z,18.37
2023-01-26T20:07:45.604Z,18.87
2023-01-26T20:10:12.583Z,19.33
2023-01-26T20:12:39.339Z,18.57
2023-01-26T20:15:06.512Z,19.03
2023-01-26T20:17:33.385Z,18.03
2023-01-26T20:20:00.365Z,18.77
2023-01-26T20:22:33.603Z,17.57
2023-01-26T20:25:01.034Z,18.37
2023-01-26T20:27:30.373Z,19.43
2023-01-26T20:29:57.242Z,19.30
2023-01-26T20:32:24.433Z,18.67
2023-01-26T20:34:52.513Z,20.50
2023-01-26T20:37:19.573Z,18.07
2023-01-26T20:39:47.099Z,18.33
2023-01-26T20:42:16.816Z,17.20
2023-01-26T20:44:43.708Z,16.30
2023-01-26T20:47:10.835Z,17.63
2023-01-26T20:49:37.793Z,17.23
2023-01-26T20:52:08.176Z,17.77
2023-01-26T20:54:38.067Z,18.30
2023-01-26T20:57:04.985Z,18.80
2023-01-26T20:59:31.815Z,19.00
2023-01-26T21:01:58.847Z,19.17
2023-01-26T21:04:25.854Z,18.63
2023-01-26T21:06:54.421Z,19.13
2023-01-26T21:09:21.383Z,22.10
2023-01-26T21:11:48.343Z,23.03
2023-01-26T21:14:15.352Z,23.63
2023-01-26T21:16:42.247Z,21.23
2023-01-26T21:19:09.182Z,20.43
2023-01-26T21:21:36.394Z,20.90
2023-01-26T21:24:03.351Z,20.27
2023-01-26T21:26:30.202Z,20.13
2023-01-26T21:28:58.557Z,20.17
2023-01-26T21:31:26.603Z,22.90
2023-01-26T21:33:53.720Z,22.90
2023-01-26T21:36:22.186Z,24.07
2023-01-26T21:38:51.385Z,23.13
2023-01-26T21:41:38.639Z,23.93
2023-01-26T21:44:06.658Z,25.40
2023-01-26T21:46:33.932Z,25.53
2023-01-26T21:49:00.955Z,26.83
2023-01-26T21:51:46.323Z,24.10
2023-01-26T21:54:14.302Z,23.33
2023-01-26T21:56:41.549Z,24.03
2023-01-26T21:59:14.803Z,23.43
2023-01-26T22:01:49.279Z,22.27
2023-01-26T22:04:28.206Z,23.63
2023-01-26T22:06:55.988Z,21.73
2023-01-26T22:09:24.505Z,23.67
2023-01-26T22:11:52.150Z,21.17
2023-01-26T22:14:23.015Z,19.87
2023-01-26T22:16:50.111Z,20.63
2023-01-26T22:19:17.160Z,19.37
2023-01-26T22:21:44.979Z,19.47
2023-01-26T22:24:15.073Z,20.00
2023-01-26T22:26:42.578Z,22.77
2023-01-26T22:29:10.530Z,20.87
2023-01-26T22:31:37.530Z,20.90
2023-01-26T22:34:04.955Z,23.00
2023-01-26T22:36:31.863Z,25.03
2023-01-26T22:38:59.530Z,24.67
2023-01-26T22:41:27.284Z,26.37
2023-01-26T22:43:55.551Z,26.60
2023-01-26T22:46:23.232Z,28.87
2023-01-26T22:48:50.423Z,28.90
2023-01-26T22:51:18.909Z,29.20
2023-01-26T22:53:45.841Z,29.90
2023-01-26T22:56:14.013Z,30.30
2023-01-26T22:58:56.655Z,27.67
2023-01-26T23:01:24.586Z,29.07
2023-01-26T23:03:52.452Z,29.67
2023-01-26T23:06:19.575Z,29.27
2023-01-26T23:08:46.682Z,29.47
2023-01-26T23:11:14.787Z,31.83
2023-01-26T23:13:42.446Z,30.27
2023-01-26T23:16:09.758Z,30.87
2023-01-26T23:18:36.625Z,30.67
2023-01-26T23:21:03.748Z,34.57
2023-01-26T23:23:30.625Z,32.30
2023-01-26T23:25:57.921Z,32.23
2023-01-26T23:28:29.770Z,32.03
2023-01-26T23:30:57.262Z,31.87
2023-01-26T23:33:25.078Z,33.37
2023-01-26T23:35:52.310Z,34.17
2023-01-26T23:38:20.530Z,32.23
2023-01-26T23:40:48.037Z,34.17
2023-01-26T23:43:17.266Z,35.70
2023-01-26T23:45:44.678Z,35.90
2023-01-26T23:48:20.165Z,29.26
2023-01-26T23:50:47.257Z,32.90
2023-01-26T23:53:30.863Z,29.57
2023-01-26T23:55:58.926Z,34.70
2023-01-26T23:58:25.739Z,33.53
